createdAt,value
2022-08-26T00:00:20.730Z,0.00
2022-08-26T00:01:29.173Z,0.00
2022-08-26T00:02:20.823Z,0.00
2022-08-26T00:03:20.699Z,0.00
2022-08-26T00:04:20.737Z,0.00
2022-08-26T00:05:20.679Z,0.00
2022-08-26T00:06:20.812Z,0.00
2022-08-26T00:07:20.659Z,0.00
2022-08-26T00:08:20.642Z,0.00
2022-08-26T00:09:20.634Z,0.00
2022-08-26T00:10:20.622Z,0.00
2022-08-26T00:11:26.778Z,0.00
2022-08-26T00:12:20.600Z,0.00
2022-08-26T00:13:20.588Z,0.00
2022-08-26T00:14:20.574Z,0.00
2022-08-26T00:15:20.565Z,0.00
2022-08-26T00:16:20.624Z,0.00
2022-08-26T00:17:20.543Z,0.00
2022-08-26T00:18:22.387Z,0.00
2022-08-26T00:19:20.518Z,0.00
2022-08-26T00:20:20.511Z,0.00
2022-08-26T00:21:20.491Z,0.00
2022-08-26T00:22:21.592Z,0.00
2022-08-26T00:23:20.472Z,0.00
2022-08-26T00:24:20.468Z,0.00
2022-08-26T00:25:20.448Z,0.00
2022-08-26T00:26:20.442Z,0.00
2022-08-26T00:27:20.425Z,0.00
2022-08-26T00:28:20.411Z,0.00
2022-08-26T00:29:21.373Z,0.00
2022-08-26T00:30:21.393Z,0.00
2022-08-26T00:31:20.406Z,0.00
2022-08-26T00:32:20.373Z,0.00
2022-08-26T00:33:20.360Z,0.00
2022-08-26T00:34:20.347Z,0.00
2022-08-26T00:35:20.335Z,0.00
2022-08-26T00:36:20.669Z,0.00
2022-08-26T00:37:20.310Z,0.00
2022-08-26T00:38:20.302Z,0.00
2022-08-26T00:39:20.360Z,0.00
2022-08-26T00:40:20.302Z,0.00
2022-08-26T00:41:20.267Z,0.00
2022-08-26T00:42:20.256Z,0.00
2022-08-26T00:43:20.241Z,0.00
2022-08-26T00:44:20.234Z,0.00
2022-08-26T00:45:20.219Z,0.00
2022-08-26T00:46:20.212Z,0.00
2022-08-26T00:47:20.193Z,0.00
2022-08-26T00:48:20.188Z,0.00
2022-08-26T00:49:20.173Z,0.00
2022-08-26T00:50:20.161Z,0.00
2022-08-26T00:51:20.149Z,0.00
2022-08-26T00:52:20.141Z,0.00
2022-08-26T00:53:20.127Z,0.00
2022-08-26T00:54:20.117Z,0.00
2022-08-26T00:55:20.537Z,0.00
2022-08-26T00:56:20.095Z,0.00
2022-08-26T00:57:20.078Z,0.00
2022-08-26T00:58:20.069Z,0.00
2022-08-26T00:59:20.056Z,0.00
2022-08-26T01:00:20.044Z,0.00
2022-08-26T01:01:23.030Z,0.00
2022-08-26T01:02:21.461Z,0.00
2022-08-26T01:03:20.014Z,0.00
2022-08-26T01:04:20.002Z,0.00
2022-08-26T01:05:19.990Z,0.00
2022-08-26T01:06:19.980Z,0.00
2022-08-26T01:07:19.965Z,0.00
2022-08-26T01:08:19.954Z,0.00
2022-08-26T01:09:19.937Z,0.00
2022-08-26T01:10:19.932Z,0.00
2022-08-26T01:11:19.913Z,0.00
2022-08-26T01:12:22.128Z,0.00
2022-08-26T01:13:20.159Z,0.00
2022-08-26T01:14:20.221Z,0.00
2022-08-26T01:15:19.871Z,0.00
2022-08-26T01:16:19.902Z,0.00
2022-08-26T01:17:19.850Z,0.00
2022-08-26T01:18:19.835Z,0.00
2022-08-26T01:19:19.825Z,0.00
2022-08-26T01:20:19.806Z,0.00
2022-08-26T01:21:19.797Z,0.00
2022-08-26T01:22:19.787Z,0.00
2022-08-26T01:23:19.773Z,0.00
2022-08-26T01:24:19.760Z,0.00
2022-08-26T01:25:19.754Z,0.00
2022-08-26T01:26:20.187Z,0.00
2022-08-26T01:27:19.732Z,0.00
2022-08-26T01:28:19.717Z,0.00
2022-08-26T01:29:20.224Z,0.00
2022-08-26T01:30:19.693Z,0.00
2022-08-26T01:31:19.797Z,0.00
2022-08-26T01:32:19.666Z,0.00
2022-08-26T01:33:19.660Z,0.00
2022-08-26T01:34:19.715Z,0.00
2022-08-26T01:35:19.637Z,0.00
2022-08-26T01:36:19.625Z,0.00
2022-08-26T01:37:19.607Z,0.00
2022-08-26T01:38:19.599Z,0.00
2022-08-26T01:39:19.585Z,0.00
2022-08-26T01:40:19.610Z,0.00
2022-08-26T01:41:20.261Z,0.00
2022-08-26T01:42:19.547Z,0.00
2022-08-26T01:43:19.536Z,0.00
2022-08-26T01:44:19.527Z,0.00
2022-08-26T01:45:19.509Z,0.00
2022-08-26T01:46:19.498Z,0.00
2022-08-26T01:47:19.489Z,0.00
2022-08-26T01:48:19.478Z,0.00
2022-08-26T01:49:19.465Z,0.00
2022-08-26T01:50:27.647Z,0.00
2022-08-26T01:51:19.442Z,0.00
2022-08-26T01:52:19.427Z,0.00
2022-08-26T01:53:19.422Z,0.00
2022-08-26T01:54:20.579Z,0.00
2022-08-26T01:55:33.039Z,0.00
2022-08-26T01:56:19.384Z,0.00
2022-08-26T01:57:19.374Z,0.00
2022-08-26T01:58:19.361Z,0.00
2022-08-26T01:59:19.345Z,0.00
2022-08-26T02:00:19.339Z,0.00
2022-08-26T02:01:19.397Z,0.00
2022-08-26T02:02:19.310Z,0.00
2022-08-26T02:03:19.300Z,0.00
2022-08-26T02:04:19.333Z,0.00
2022-08-26T02:05:19.278Z,0.00
2022-08-26T02:06:19.265Z,0.00
2022-08-26T02:07:19.256Z,0.00
2022-08-26T02:08:24.692Z,0.00
2022-08-26T02:09:19.224Z,0.00
2022-08-26T02:10:19.721Z,0.00
2022-08-26T02:11:19.200Z,0.00
2022-08-26T02:12:19.190Z,0.00
2022-08-26T02:13:19.182Z,0.00
2022-08-26T02:14:19.164Z,0.00
2022-08-26T02:15:19.156Z,0.00
2022-08-26T02:16:19.175Z,0.00
2022-08-26T02:17:19.134Z,0.00
2022-08-26T02:18:19.119Z,0.00
2022-08-26T02:19:19.105Z,0.00
2022-08-26T02:20:19.098Z,0.00
2022-08-26T02:21:19.082Z,0.00
2022-08-26T02:22:19.066Z,0.00
2022-08-26T02:23:19.057Z,0.00
2022-08-26T02:24:19.048Z,0.00
2022-08-26T02:25:19.034Z,0.00
2022-08-26T02:26:19.374Z,0.00
2022-08-26T02:27:19.006Z,0.00
2022-08-26T02:28:19.833Z,0.00
2022-08-26T02:29:18.983Z,0.00
2022-08-26T02:30:19.026Z,0.00
2022-08-26T02:31:18.966Z,0.00
2022-08-26T02:32:18.947Z,0.00
2022-08-26T02:33:18.939Z,0.00
2022-08-26T02:34:18.925Z,0.00
2022-08-26T02:35:20.305Z,0.00
2022-08-26T02:36:18.904Z,0.00
2022-08-26T02:37:18.887Z,0.00
2022-08-26T02:38:18.877Z,0.00
2022-08-26T02:39:22.313Z,0.00
2022-08-26T02:40:18.909Z,0.00
2022-08-26T02:41:18.841Z,0.00
2022-08-26T02:42:18.828Z,0.00
2022-08-26T02:43:18.821Z,0.00
2022-08-26T02:44:18.804Z,0.00
2022-08-26T02:45:23.273Z,0.00
2022-08-26T02:46:21.563Z,0.00
2022-08-26T02:47:18.762Z,0.00
2022-08-26T02:48:18.964Z,0.00
2022-08-26T02:49:18.741Z,0.00
2022-08-26T02:50:18.730Z,0.00
2022-08-26T02:51:18.717Z,0.00
2022-08-26T02:52:18.703Z,0.00
2022-08-26T02:53:24.510Z,0.00
2022-08-26T02:54:18.679Z,0.00
2022-08-26T02:55:18.666Z,0.00
2022-08-26T02:56:18.658Z,0.00
2022-08-26T02:57:18.648Z,0.00
2022-08-26T02:58:18.629Z,0.00
2022-08-26T02:59:18.615Z,0.00
2022-08-26T03:00:18.607Z,0.00
2022-08-26T03:01:18.648Z,0.00
2022-08-26T03:02:18.612Z,0.00
2022-08-26T03:03:18.570Z,0.00
2022-08-26T03:04:18.561Z,0.00
2022-08-26T03:05:18.545Z,0.00
2022-08-26T03:06:18.534Z,0.00
2022-08-26T03:07:18.518Z,0.00
2022-08-26T03:08:18.509Z,0.00
2022-08-26T03:09:18.911Z,0.00
2022-08-26T03:10:18.485Z,0.00
2022-08-26T03:11:18.471Z,0.00
2022-08-26T03:12:18.462Z,0.00
2022-08-26T03:13:18.446Z,0.00
2022-08-26T03:14:18.435Z,0.00
2022-08-26T03:15:18.594Z,0.00
2022-08-26T03:16:18.553Z,0.00
2022-08-26T03:17:18.398Z,0.00
2022-08-26T03:18:18.382Z,0.00
2022-08-26T03:19:18.370Z,0.00
2022-08-26T03:20:18.364Z,0.00
2022-08-26T03:21:18.358Z,0.00
2022-08-26T03:22:18.333Z,0.00
2022-08-26T03:23:18.549Z,0.00
2022-08-26T03:24:18.309Z,0.00
2022-08-26T03:25:18.301Z,0.00
2022-08-26T03:26:18.285Z,0.00
2022-08-26T03:27:18.272Z,0.00
2022-08-26T03:28:18.259Z,0.00
2022-08-26T03:29:18.244Z,0.00
2022-08-26T03:30:18.234Z,0.00
2022-08-26T03:31:18.286Z,0.00
2022-08-26T03:32:18.213Z,0.00
2022-08-26T03:33:18.198Z,0.00
2022-08-26T03:34:18.200Z,0.00
2022-08-26T03:35:18.173Z,0.00
2022-08-26T03:36:18.164Z,0.00
2022-08-26T03:37:18.148Z,0.00
2022-08-26T03:38:18.139Z,0.00
2022-08-26T03:39:18.119Z,0.00
2022-08-26T03:40:20.366Z,0.00
2022-08-26T03:41:18.096Z,0.00
2022-08-26T03:42:18.084Z,0.00
2022-08-26T03:43:18.074Z,0.00
2022-08-26T03:44:18.064Z,0.00
2022-08-26T03:45:18.048Z,0.00
2022-08-26T03:46:18.105Z,0.00
2022-08-26T03:47:18.023Z,0.00
2022-08-26T03:48:18.012Z,0.00
2022-08-26T03:49:17.995Z,0.00
2022-08-26T03:50:17.987Z,0.00
2022-08-26T03:51:18.215Z,0.00
2022-08-26T03:52:17.958Z,0.00
2022-08-26T03:53:17.952Z,0.00
2022-08-26T03:54:17.935Z,0.00
2022-08-26T03:55:17.922Z,0.00
2022-08-26T03:56:17.914Z,0.00
2022-08-26T03:57:17.898Z,0.00
2022-08-26T03:58:17.892Z,0.00
2022-08-26T03:59:17.872Z,4.00
2022-08-26T04:00:18.476Z,0.00
2022-08-26T04:01:17.903Z,0.00
2022-08-26T04:02:17.839Z,4.00
2022-08-26T04:03:18.910Z,0.00
2022-08-26T04:04:17.828Z,4.00
2022-08-26T04:05:17.795Z,4.00
2022-08-26T04:06:17.785Z,4.00
2022-08-26T04:07:17.774Z,4.00
2022-08-26T04:08:17.760Z,4.00
2022-08-26T04:09:17.750Z,8.00
2022-08-26T04:10:20.402Z,12.00
2022-08-26T04:11:17.722Z,12.00
2022-08-26T04:12:17.719Z,12.00
2022-08-26T04:13:17.696Z,12.00
2022-08-26T04:14:20.119Z,16.00
2022-08-26T04:15:17.830Z,16.00
2022-08-26T04:16:17.690Z,20.00
2022-08-26T04:17:17.645Z,24.00
2022-08-26T04:18:17.635Z,28.00
2022-08-26T04:19:17.622Z,32.00
2022-08-26T04:20:17.607Z,32.00
2022-08-26T04:21:17.597Z,36.00
2022-08-26T04:22:18.380Z,40.00
2022-08-26T04:23:17.571Z,44.00
2022-08-26T04:24:17.785Z,48.00
2022-08-26T04:25:17.544Z,56.00
2022-08-26T04:26:17.542Z,60.00
2022-08-26T04:27:17.523Z,68.00
2022-08-26T04:28:17.507Z,76.00
2022-08-26T04:29:17.499Z,80.00
2022-08-26T04:30:17.481Z,88.00
2022-08-26T04:31:17.561Z,96.00
2022-08-26T04:32:17.459Z,100.00
2022-08-26T04:33:17.444Z,108.00
2022-08-26T04:34:17.427Z,116.00
2022-08-26T04:35:17.460Z,124.00
2022-08-26T04:36:17.420Z,132.00
2022-08-26T04:37:17.392Z,144.00
2022-08-26T04:38:17.381Z,152.00
2022-08-26T04:39:17.367Z,164.00
2022-08-26T04:40:17.415Z,176.00
2022-08-26T04:41:17.348Z,188.00
2022-08-26T04:42:21.083Z,200.00
2022-08-26T04:43:17.316Z,216.00
2022-08-26T04:44:17.305Z,232.00
2022-08-26T04:45:17.293Z,244.00
2022-08-26T04:46:17.337Z,264.00
2022-08-26T04:47:17.264Z,276.00
2022-08-26T04:48:17.256Z,296.00
2022-08-26T04:49:17.242Z,316.00
2022-08-26T04:50:17.227Z,328.00
2022-08-26T04:51:17.212Z,344.00
2022-08-26T04:52:17.210Z,356.00
2022-08-26T04:53:17.188Z,368.00
2022-08-26T04:54:17.172Z,380.00
2022-08-26T04:55:17.163Z,392.00
2022-08-26T04:56:17.149Z,404.00
2022-08-26T04:57:17.134Z,424.00
2022-08-26T04:58:17.123Z,448.00
2022-08-26T04:59:18.151Z,472.00
2022-08-26T05:00:17.099Z,488.00
2022-08-26T05:01:17.122Z,504.00
2022-08-26T05:02:17.072Z,532.00
2022-08-26T05:03:17.063Z,560.00
2022-08-26T05:04:18.923Z,584.00
2022-08-26T05:05:17.032Z,612.00
2022-08-26T05:06:17.021Z,628.00
2022-08-26T05:07:17.690Z,656.00
2022-08-26T05:08:16.997Z,680.00
2022-08-26T05:09:16.982Z,708.00
2022-08-26T05:10:16.972Z,764.00
2022-08-26T05:11:16.963Z,816.00
2022-08-26T05:12:16.944Z,876.00
2022-08-26T05:13:16.939Z,928.00
2022-08-26T05:14:16.917Z,968.00
2022-08-26T05:15:16.909Z,992.00
2022-08-26T05:16:17.022Z,1032.00
2022-08-26T05:17:16.883Z,1084.00
2022-08-26T05:18:16.874Z,1156.00
2022-08-26T05:19:17.225Z,1224.00
2022-08-26T05:20:16.847Z,1296.00
2022-08-26T05:21:16.828Z,1344.00
2022-08-26T05:22:16.811Z,1404.00
2022-08-26T05:23:16.800Z,1460.00
2022-08-26T05:24:16.792Z,1516.00
2022-08-26T05:25:16.774Z,1600.00
2022-08-26T05:26:16.762Z,1660.00
2022-08-26T05:27:16.749Z,1712.00
2022-08-26T05:28:16.741Z,1788.00
2022-08-26T05:29:16.929Z,1848.00
2022-08-26T05:30:16.716Z,1900.00
2022-08-26T05:31:16.723Z,1972.00
2022-08-26T05:32:16.687Z,2040.00
2022-08-26T05:33:16.675Z,2108.00
2022-08-26T05:34:16.662Z,2176.00
2022-08-26T05:35:16.647Z,2252.00
2022-08-26T05:36:16.637Z,2332.00
2022-08-26T05:37:16.624Z,2384.00
2022-08-26T05:38:16.608Z,2428.00
2022-08-26T05:39:16.595Z,2452.00
2022-08-26T05:40:16.605Z,2496.00
2022-08-26T05:41:16.676Z,2576.00
2022-08-26T05:42:16.560Z,2608.00
2022-08-26T05:43:16.543Z,2708.00
2022-08-26T05:44:16.535Z,2784.00
2022-08-26T05:45:16.524Z,2892.00
2022-08-26T05:46:16.555Z,2972.00
2022-08-26T05:47:16.496Z,2800.00
2022-08-26T05:48:16.479Z,2924.00
2022-08-26T05:49:16.468Z,3052.00
2022-08-26T05:50:16.458Z,2728.00
2022-08-26T05:51:16.444Z,2736.00
2022-08-26T05:52:16.435Z,2748.00
2022-08-26T05:53:17.429Z,2584.00
2022-08-26T05:54:21.931Z,2320.00
2022-08-26T05:55:16.397Z,1876.00
2022-08-26T05:56:16.383Z,1768.00
2022-08-26T05:57:16.369Z,1456.00
2022-08-26T05:58:17.442Z,1224.00
2022-08-26T05:59:16.343Z,1328.00
2022-08-26T06:00:16.333Z,1156.00
2022-08-26T06:01:16.366Z,1032.00
2022-08-26T06:02:16.306Z,1028.00
2022-08-26T06:03:16.363Z,1304.00
2022-08-26T06:04:16.284Z,1352.00
2022-08-26T06:05:16.270Z,1396.00
2022-08-26T06:06:16.255Z,1240.00
2022-08-26T06:07:16.242Z,1100.00
2022-08-26T06:08:16.230Z,968.00
2022-08-26T06:09:18.228Z,948.00
2022-08-26T06:10:31.429Z,936.00
2022-08-26T06:11:18.590Z,1052.00
2022-08-26T06:12:16.185Z,984.00
2022-08-26T06:13:16.168Z,976.00
2022-08-26T06:14:16.157Z,1000.00
2022-08-26T06:15:16.137Z,1172.00
2022-08-26T06:16:16.216Z,1084.00
2022-08-26T06:17:16.117Z,1020.00
2022-08-26T06:18:16.106Z,1064.00
2022-08-26T06:19:16.086Z,1128.00
2022-08-26T06:20:16.079Z,1132.00
2022-08-26T06:21:16.063Z,1224.00
2022-08-26T06:22:18.459Z,1192.00
2022-08-26T06:23:16.038Z,1280.00
2022-08-26T06:24:16.025Z,1280.00
2022-08-26T06:25:16.014Z,1184.00
2022-08-26T06:26:16.006Z,1068.00
2022-08-26T06:27:15.989Z,1056.00
2022-08-26T06:28:15.974Z,1144.00
2022-08-26T06:29:24.519Z,1044.00
2022-08-26T06:30:15.961Z,1152.00
2022-08-26T06:31:16.013Z,1244.00
2022-08-26T06:32:15.926Z,1068.00
2022-08-26T06:33:15.910Z,1012.00
2022-08-26T06:34:15.900Z,1048.00
2022-08-26T06:35:15.891Z,1068.00
2022-08-26T06:36:15.876Z,1152.00
2022-08-26T06:37:15.858Z,1132.00
2022-08-26T06:38:15.848Z,1132.00
2022-08-26T06:39:15.836Z,1152.00
2022-08-26T06:40:15.886Z,1168.00
2022-08-26T06:41:15.810Z,1176.00
2022-08-26T06:42:15.799Z,1224.00
2022-08-26T06:43:15.785Z,1288.00
2022-08-26T06:44:15.772Z,1272.00
2022-08-26T06:45:15.757Z,1528.00
2022-08-26T06:46:15.795Z,1372.00
2022-08-26T06:47:15.730Z,1260.00
2022-08-26T06:48:15.729Z,1192.00
2022-08-26T06:49:15.705Z,1420.00
2022-08-26T06:50:15.695Z,1268.00
2022-08-26T06:51:15.682Z,1280.00
2022-08-26T06:52:19.942Z,1300.00
2022-08-26T06:53:15.654Z,1256.00
2022-08-26T06:54:15.641Z,1192.00
2022-08-26T06:55:15.629Z,1280.00
2022-08-26T06:56:15.618Z,1468.00
2022-08-26T06:57:16.823Z,1480.00
2022-08-26T06:58:15.594Z,1352.00
2022-08-26T06:59:15.577Z,1288.00
2022-08-26T07:00:15.576Z,1212.00
2022-08-26T07:01:15.574Z,1200.00
2022-08-26T07:02:15.634Z,1196.00
2022-08-26T07:03:15.605Z,1308.00
2022-08-26T07:04:15.925Z,1364.00
2022-08-26T07:05:15.504Z,1360.00
2022-08-26T07:06:15.494Z,1288.00
2022-08-26T07:07:15.482Z,1280.00
2022-08-26T07:08:15.468Z,1292.00
2022-08-26T07:09:15.452Z,1324.00
2022-08-26T07:10:15.442Z,1304.00
2022-08-26T07:11:15.428Z,1268.00
2022-08-26T07:12:15.413Z,1308.00
2022-08-26T07:13:15.400Z,1332.00
2022-08-26T07:14:15.387Z,1324.00
2022-08-26T07:15:15.378Z,1344.00
2022-08-26T07:16:15.414Z,1400.00
2022-08-26T07:17:15.349Z,1424.00
2022-08-26T07:18:15.334Z,1420.00
2022-08-26T07:19:15.324Z,1368.00
2022-08-26T07:20:15.318Z,1368.00
2022-08-26T07:21:15.303Z,1412.00
2022-08-26T07:22:15.289Z,1508.00
2022-08-26T07:23:15.276Z,1540.00
2022-08-26T07:24:15.264Z,1488.00
2022-08-26T07:25:15.253Z,1448.00
2022-08-26T07:26:15.241Z,1556.00
2022-08-26T07:27:15.225Z,1780.00
2022-08-26T07:28:15.212Z,1824.00
2022-08-26T07:29:15.199Z,1812.00
2022-08-26T07:30:15.188Z,1788.00
2022-08-26T07:31:15.236Z,1872.00
2022-08-26T07:32:15.168Z,1700.00
2022-08-26T07:33:15.153Z,1704.00
2022-08-26T07:34:15.141Z,1712.00
2022-08-26T07:35:15.125Z,1628.00
2022-08-26T07:36:15.121Z,1716.00
2022-08-26T07:37:15.103Z,1872.00
2022-08-26T07:38:15.090Z,2172.00
2022-08-26T07:39:15.079Z,2088.00
2022-08-26T07:40:15.091Z,1916.00
2022-08-26T07:41:15.053Z,1932.00
2022-08-26T07:42:15.050Z,1936.00
2022-08-26T07:43:15.023Z,1828.00
2022-08-26T07:44:15.016Z,1756.00
2022-08-26T07:45:14.999Z,1700.00
2022-08-26T07:46:16.541Z,1660.00
2022-08-26T07:47:24.843Z,1652.00
2022-08-26T07:48:14.968Z,1652.00
2022-08-26T07:49:15.013Z,1664.00
2022-08-26T07:50:14.939Z,1684.00
2022-08-26T07:51:14.927Z,1664.00
2022-08-26T07:52:14.919Z,1712.00
2022-08-26T07:53:14.901Z,1696.00
2022-08-26T07:54:14.889Z,1712.00
2022-08-26T07:55:14.876Z,1748.00
2022-08-26T07:56:14.867Z,1732.00
2022-08-26T07:57:14.852Z,1732.00
2022-08-26T07:58:14.841Z,1876.00
2022-08-26T07:59:14.960Z,2024.00
2022-08-26T08:00:14.815Z,2208.00
2022-08-26T08:01:14.874Z,2568.00
2022-08-26T08:02:14.793Z,2400.00
2022-08-26T08:03:14.778Z,2152.00
2022-08-26T08:04:14.767Z,2052.00
2022-08-26T08:05:14.784Z,1936.00
2022-08-26T08:06:14.746Z,1880.00
2022-08-26T08:07:14.731Z,1844.00
2022-08-26T08:08:27.572Z,1784.00
2022-08-26T08:09:14.710Z,1752.00
2022-08-26T08:10:14.696Z,1712.00
2022-08-26T08:11:14.686Z,1688.00
2022-08-26T08:12:14.674Z,1632.00
2022-08-26T08:13:14.662Z,1600.00
2022-08-26T08:14:14.651Z,1528.00
2022-08-26T08:15:14.638Z,1620.00
2022-08-26T08:16:14.626Z,1624.00
2022-08-26T08:17:14.615Z,1624.00
2022-08-26T08:18:15.497Z,1644.00
2022-08-26T08:19:14.583Z,1688.00
2022-08-26T08:20:14.585Z,1732.00
2022-08-26T08:21:21.875Z,1748.00
2022-08-26T08:22:17.857Z,1768.00
2022-08-26T08:23:14.536Z,1772.00
2022-08-26T08:24:14.530Z,1828.00
2022-08-26T08:25:14.518Z,2008.00
2022-08-26T08:26:14.505Z,2372.00
2022-08-26T08:27:14.489Z,2568.00
2022-08-26T08:28:14.478Z,2536.00
2022-08-26T08:29:14.477Z,2460.00
2022-08-26T08:30:14.456Z,2532.00
2022-08-26T08:31:14.519Z,2728.00
2022-08-26T08:32:15.461Z,2776.00
2022-08-26T08:33:14.419Z,2812.00
2022-08-26T08:34:14.405Z,2904.00
2022-08-26T08:35:14.399Z,2852.00
2022-08-26T08:36:14.385Z,2652.00
2022-08-26T08:37:14.373Z,2552.00
2022-08-26T08:38:14.357Z,2448.00
2022-08-26T08:39:14.362Z,2344.00
2022-08-26T08:40:14.358Z,2288.00
2022-08-26T08:41:14.348Z,2280.00
2022-08-26T08:42:14.311Z,2268.00
2022-08-26T08:43:14.301Z,2204.00
2022-08-26T08:44:14.338Z,2136.00
2022-08-26T08:45:14.274Z,2100.00
2022-08-26T08:46:14.339Z,2104.00
2022-08-26T08:47:14.255Z,2160.00
2022-08-26T08:48:14.268Z,2224.00
2022-08-26T08:49:14.259Z,2220.00
2022-08-26T08:50:14.215Z,2212.00
2022-08-26T08:51:14.209Z,2180.00
2022-08-26T08:52:14.196Z,2156.00
2022-08-26T08:53:14.338Z,2148.00
2022-08-26T08:54:14.172Z,2164.00
2022-08-26T08:55:17.756Z,2232.00
2022-08-26T08:56:14.150Z,2324.00
2022-08-26T08:57:14.151Z,2380.00
2022-08-26T08:58:14.131Z,2364.00
2022-08-26T08:59:14.115Z,2276.00
2022-08-26T09:00:14.104Z,2228.00
2022-08-26T09:01:14.179Z,2240.00
2022-08-26T09:02:14.147Z,2256.00
2022-08-26T09:03:14.068Z,2340.00
2022-08-26T09:04:14.056Z,2424.00
2022-08-26T09:05:15.129Z,2464.00
2022-08-26T09:06:14.035Z,2408.00
2022-08-26T09:07:14.018Z,2316.00
2022-08-26T09:08:14.009Z,2220.00
2022-08-26T09:09:13.999Z,2160.00
2022-08-26T09:10:13.986Z,2120.00
2022-08-26T09:11:13.973Z,2076.00
2022-08-26T09:12:13.969Z,2068.00
2022-08-26T09:13:17.051Z,2048.00
2022-08-26T09:14:13.940Z,1988.00
2022-08-26T09:15:13.926Z,1956.00
2022-08-26T09:16:13.917Z,1940.00
2022-08-26T09:17:13.905Z,1876.00
2022-08-26T09:18:13.893Z,1852.00
2022-08-26T09:19:13.877Z,1808.00
2022-08-26T09:20:13.873Z,1816.00
2022-08-26T09:21:13.861Z,1808.00
2022-08-26T09:22:13.906Z,1824.00
2022-08-26T09:23:13.835Z,1808.00
2022-08-26T09:24:14.147Z,1796.00
2022-08-26T09:25:13.809Z,1816.00
2022-08-26T09:26:13.794Z,1860.00
2022-08-26T09:27:13.787Z,1948.00
2022-08-26T09:28:13.779Z,2068.00
2022-08-26T09:29:13.804Z,2132.00
2022-08-26T09:30:13.752Z,2256.00
2022-08-26T09:31:13.840Z,2292.00
2022-08-26T09:32:13.726Z,2280.00
2022-08-26T09:33:13.886Z,2244.00
2022-08-26T09:34:17.279Z,2184.00
2022-08-26T09:35:13.688Z,2148.00
2022-08-26T09:36:13.682Z,2176.00
2022-08-26T09:37:13.669Z,2252.00
2022-08-26T09:38:13.905Z,2320.00
2022-08-26T09:39:13.652Z,2292.00
2022-08-26T09:40:13.713Z,2280.00
2022-08-26T09:41:13.624Z,2208.00
2022-08-26T09:42:14.181Z,2080.00
2022-08-26T09:43:13.594Z,1988.00
2022-08-26T09:44:14.547Z,1944.00
2022-08-26T09:45:13.572Z,1880.00
2022-08-26T09:46:13.649Z,1868.00
2022-08-26T09:47:13.547Z,1920.00
2022-08-26T09:48:13.541Z,1992.00
2022-08-26T09:49:13.525Z,2036.00
2022-08-26T09:50:13.515Z,2032.00
2022-08-26T09:51:13.506Z,1992.00
2022-08-26T09:52:13.493Z,2028.00
2022-08-26T09:53:13.480Z,2120.00
2022-08-26T09:54:13.471Z,2280.00
2022-08-26T09:55:13.458Z,2344.00
2022-08-26T09:56:13.448Z,2304.00
2022-08-26T09:57:13.444Z,2248.00
2022-08-26T09:58:13.417Z,2264.00
2022-08-26T09:59:13.412Z,2344.00
2022-08-26T10:00:13.399Z,2256.00
2022-08-26T10:01:13.404Z,2112.00
2022-08-26T10:02:13.375Z,2044.00
2022-08-26T10:03:15.691Z,2072.00
2022-08-26T10:04:13.453Z,2132.00
2022-08-26T10:05:13.345Z,2208.00
2022-08-26T10:06:13.332Z,2256.00
2022-08-26T10:07:13.316Z,2332.00
2022-08-26T10:08:13.301Z,2456.00
2022-08-26T10:09:13.291Z,2704.00
2022-08-26T10:10:13.284Z,2916.00
2022-08-26T10:11:13.269Z,2996.00
2022-08-26T10:12:13.256Z,3088.00
2022-08-26T10:13:13.245Z,2892.00
2022-08-26T10:14:13.234Z,2728.00
2022-08-26T10:15:13.221Z,2664.00
2022-08-26T10:16:13.217Z,2672.00
2022-08-26T10:17:13.200Z,2676.00
2022-08-26T10:18:13.186Z,2728.00
2022-08-26T10:19:13.219Z,2844.00
2022-08-26T10:20:22.411Z,2912.00
2022-08-26T10:21:13.155Z,2932.00
2022-08-26T10:22:13.143Z,2744.00
2022-08-26T10:23:14.085Z,2744.00
2022-08-26T10:24:13.121Z,2752.00
2022-08-26T10:25:13.115Z,2964.00
2022-08-26T10:26:13.096Z,3772.00
2022-08-26T10:27:13.086Z,4708.00
2022-08-26T10:28:13.077Z,4252.00
2022-08-26T10:29:13.084Z,3976.00
2022-08-26T10:30:13.053Z,4048.00
2022-08-26T10:31:13.036Z,3940.00
2022-08-26T10:32:13.841Z,3836.00
2022-08-26T10:33:13.017Z,3776.00
2022-08-26T10:34:13.954Z,3664.00
2022-08-26T10:35:12.996Z,3624.00
2022-08-26T10:36:15.200Z,3476.00
2022-08-26T10:37:14.209Z,3464.00
2022-08-26T10:38:12.972Z,3412.00
2022-08-26T10:39:12.952Z,3376.00
2022-08-26T10:40:13.019Z,3532.00
2022-08-26T10:41:13.115Z,3632.00
2022-08-26T10:42:12.913Z,3708.00
2022-08-26T10:43:12.908Z,3700.00
2022-08-26T10:44:12.893Z,3504.00
2022-08-26T10:45:15.142Z,3296.00
2022-08-26T10:46:12.947Z,3148.00
2022-08-26T10:47:12.862Z,3136.00
2022-08-26T10:48:12.846Z,3220.00
2022-08-26T10:49:12.844Z,3392.00
2022-08-26T10:50:12.907Z,3632.00
2022-08-26T10:51:12.820Z,3644.00
2022-08-26T10:52:16.583Z,3604.00
2022-08-26T10:53:12.795Z,3376.00
2022-08-26T10:54:12.781Z,3188.00
2022-08-26T10:55:12.775Z,2944.00
2022-08-26T10:56:18.678Z,2720.00
2022-08-26T10:57:12.751Z,2580.00
2022-08-26T10:58:12.930Z,2532.00
2022-08-26T10:59:12.760Z,2484.00
2022-08-26T11:00:12.724Z,2412.00
2022-08-26T11:01:12.760Z,2404.00
2022-08-26T11:02:12.697Z,2384.00
2022-08-26T11:03:22.529Z,2516.00
2022-08-26T11:04:12.766Z,2672.00
2022-08-26T11:05:12.661Z,2908.00
2022-08-26T11:06:12.657Z,2972.00
2022-08-26T11:07:12.647Z,3200.00
2022-08-26T11:08:12.626Z,3348.00
2022-08-26T11:09:12.618Z,3448.00
2022-08-26T11:10:12.607Z,3428.00
2022-08-26T11:11:12.595Z,3316.00
2022-08-26T11:12:12.586Z,3256.00
2022-08-26T11:13:12.578Z,3196.00
2022-08-26T11:14:12.562Z,3224.00
2022-08-26T11:15:12.554Z,3564.00
2022-08-26T11:16:12.596Z,3992.00
2022-08-26T11:17:12.532Z,4408.00
2022-08-26T11:18:12.528Z,4684.00
2022-08-26T11:19:12.510Z,5020.00
2022-08-26T11:20:13.619Z,5280.00
2022-08-26T11:21:12.490Z,5820.00
2022-08-26T11:22:12.483Z,5828.00
2022-08-26T11:23:12.470Z,5968.00
2022-08-26T11:24:12.456Z,6100.00
2022-08-26T11:25:12.443Z,6584.00
2022-08-26T11:26:12.436Z,5940.00
2022-08-26T11:27:12.422Z,5388.00
2022-08-26T11:28:12.414Z,5052.00
2022-08-26T11:29:13.631Z,4556.00
2022-08-26T11:30:12.387Z,4140.00
2022-08-26T11:31:12.438Z,4044.00
2022-08-26T11:32:12.370Z,4236.00
2022-08-26T11:33:12.364Z,4276.00
2022-08-26T11:34:12.353Z,4308.00
2022-08-26T11:35:12.341Z,4312.00
2022-08-26T11:36:12.599Z,4080.00
2022-08-26T11:37:12.339Z,3684.00
2022-08-26T11:38:12.308Z,3584.00
2022-08-26T11:39:12.299Z,3496.00
2022-08-26T11:40:12.361Z,3536.00
2022-08-26T11:41:12.286Z,3728.00
2022-08-26T11:42:12.268Z,4044.00
2022-08-26T11:43:12.258Z,4516.00
2022-08-26T11:44:12.249Z,4952.00
2022-08-26T11:45:12.240Z,4788.00
2022-08-26T11:46:12.326Z,4420.00
2022-08-26T11:47:12.215Z,4048.00
2022-08-26T11:48:12.207Z,3904.00
2022-08-26T11:49:12.195Z,3740.00
2022-08-26T11:50:12.205Z,3464.00
2022-08-26T11:51:12.176Z,3476.00
2022-08-26T11:52:12.166Z,3560.00
2022-08-26T11:53:12.152Z,3752.00
2022-08-26T11:54:12.141Z,3912.00
2022-08-26T11:55:12.133Z,4092.00
2022-08-26T11:56:12.124Z,4152.00
2022-08-26T11:57:12.123Z,4096.00
2022-08-26T11:58:12.106Z,4224.00
2022-08-26T11:59:12.088Z,4292.00
2022-08-26T12:00:14.257Z,4352.00
2022-08-26T12:01:12.070Z,4308.00
2022-08-26T12:02:12.057Z,4384.00
2022-08-26T12:03:12.357Z,4504.00
2022-08-26T12:04:12.204Z,4676.00
2022-08-26T12:05:12.029Z,4668.00
2022-08-26T12:06:12.021Z,4424.00
2022-08-26T12:07:12.008Z,4196.00
2022-08-26T12:08:11.991Z,4216.00
2022-08-26T12:09:11.985Z,4336.00
2022-08-26T12:10:11.975Z,4568.00
2022-08-26T12:11:11.967Z,5208.00
2022-08-26T12:12:12.149Z,6592.00
2022-08-26T12:13:11.948Z,7816.00
2022-08-26T12:14:11.941Z,7644.00
2022-08-26T12:15:11.923Z,8280.00
2022-08-26T12:16:11.940Z,6520.00
2022-08-26T12:17:11.904Z,5984.00
2022-08-26T12:18:11.896Z,5496.00
2022-08-26T12:19:11.883Z,5440.00
2022-08-26T12:20:11.873Z,5288.00
2022-08-26T12:21:11.861Z,5304.00
2022-08-26T12:22:11.854Z,5072.00
2022-08-26T12:23:11.844Z,4848.00
2022-08-26T12:24:11.836Z,4584.00
2022-08-26T12:25:11.829Z,4272.00
2022-08-26T12:26:11.820Z,4176.00
2022-08-26T12:27:11.802Z,4108.00
2022-08-26T12:28:11.799Z,4224.00
2022-08-26T12:29:19.770Z,4376.00
2022-08-26T12:30:12.357Z,4272.00
2022-08-26T12:31:11.795Z,4060.00